sensor_id;sensor_type;location;lat;lon;timestamp;temperature;humidity
43772;HTU21D;59066;54.782;32.024;2023-12-29T00:01:30;0.59;98.80
43772;HTU21D;59066;54.782;32.024;2023-12-29T00:03:58;0.59;98.51
43772;HTU21D;59066;54.782;32.024;2023-12-29T00:06:26;0.65;98.82
43772;HTU21D;59066;54.782;32.024;2023-12-29T00:08:53;0.64;98.77
43772;HTU21D;59066;54.782;32.024;2023-12-29T00:11:21;0.61;98.60
43772;HTU21D;59066;54.782;32.024;2023-12-29T00:13:49;0.62;98.81
43772;HTU21D;59066;54.782;32.024;2023-12-29T00:16:17;0.58;98.96
43772;HTU21D;59066;54.782;32.024;2023-12-29T00:18:45;0.58;99.06
43772;HTU21D;59066;54.782;32.024;2023-12-29T00:21:12;0.60;99.22
43772;HTU21D;59066;54.782;32.024;2023-12-29T00:23:42;0.62;99.39
43772;HTU21D;59066;54.782;32.024;2023-12-29T00:26:10;0.67;99.35
43772;HTU21D;59066;54.782;32.024;2023-12-29T00:28:37;0.71;99.27
43772;HTU21D;59066;54.782;32.024;2023-12-29T00:31:07;0.69;98.93
43772;HTU21D;59066;54.782;32.024;2023-12-29T00:33:35;0.68;99.19
43772;HTU21D;59066;54.782;32.024;2023-12-29T00:36:03;0.75;99.41
43772;HTU21D;59066;54.782;32.024;2023-12-29T00:38:31;0.78;99.51
43772;HTU21D;59066;54.782;32.024;2023-12-29T00:40:58;0.76;99.37
43772;HTU21D;59066;54.782;32.024;2023-12-29T00:43:26;0.77;99.34
43772;HTU21D;59066;54.782;32.024;2023-12-29T00:45:53;0.81;99.64
43772;HTU21D;59066;54.782;32.024;2023-12-29T00:48:21;0.86;99.67
43772;HTU21D;59066;54.782;32.024;2023-12-29T00:50:49;0.82;99.64
43772;HTU21D;59066;54.782;32.024;2023-12-29T00:53:16;0.86;99.54
43772;HTU21D;59066;54.782;32.024;2023-12-29T00:55:44;0.83;99.48
43772;HTU21D;59066;54.782;32.024;2023-12-29T00:58:12;0.88;99.81
43772;HTU21D;59066;54.782;32.024;2023-12-29T01:00:40;0.89;99.74
43772;HTU21D;59066;54.782;32.024;2023-12-29T01:03:08;0.93;99.94
43772;HTU21D;59066;54.782;32.024;2023-12-29T01:05:36;1.01;100.15
43772;HTU21D;59066;54.782;32.024;2023-12-29T01:08:04;1.04;99.83
43772;HTU21D;59066;54.782;32.024;2023-12-29T01:10:31;1.06;99.86
43772;HTU21D;59066;54.782;32.024;2023-12-29T01:12:59;1.16;99.80
43772;HTU21D;59066;54.782;32.024;2023-12-29T01:15:26;1.12;99.42
43772;HTU21D;59066;54.782;32.024;2023-12-29T01:17:56;1.07;99.61
43772;HTU21D;59066;54.782;32.024;2023-12-29T01:20:24;1.11;99.59
43772;HTU21D;59066;54.782;32.024;2023-12-29T01:22:51;1.09;99.73
43772;HTU21D;59066;54.782;32.024;2023-12-29T01:25:19;1.20;99.77
43772;HTU21D;59066;54.782;32.024;2023-12-29T01:27:46;1.18;100.03
43772;HTU21D;59066;54.782;32.024;2023-12-29T01:30:14;1.16;99.67
43772;HTU21D;59066;54.782;32.024;2023-12-29T01:32:42;1.14;99.95
43772;HTU21D;59066;54.782;32.024;2023-12-29T01:35:10;1.13;99.80
43772;HTU21D;59066;54.782;32.024;2023-12-29T01:37:38;1.14;99.77
43772;HTU21D;59066;54.782;32.024;2023-12-29T01:40:06;1.17;100.00
43772;HTU21D;59066;54.782;32.024;2023-12-29T01:42:34;1.16;100.00
43772;HTU21D;59066;54.782;32.024;2023-12-29T01:45:01;1.23;100.08
43772;HTU21D;59066;54.782;32.024;2023-12-29T01:47:29;1.20;99.99
43772;HTU21D;59066;54.782;32.024;2023-12-29T01:49:58;1.16;99.97
43772;HTU21D;59066;54.782;32.024;2023-12-29T01:52:26;1.14;100.05
43772;HTU21D;59066;54.782;32.024;2023-12-29T01:54:54;1.17;100.31
43772;HTU21D;59066;54.782;32.024;2023-12-29T01:57:23;1.14;100.34
43772;HTU21D;59066;54.782;32.024;2023-12-29T01:59:50;1.19;100.52
43772;HTU21D;59066;54.782;32.024;2023-12-29T02:02:18;1.22;100.44
43772;HTU21D;59066;54.782;32.024;2023-12-29T02:04:46;1.18;100.30
43772;HTU21D;59066;54.782;32.024;2023-12-29T02:07:14;1.25;100.56
43772;HTU21D;59066;54.782;32.024;2023-12-29T02:09:43;1.29;100.32
43772;HTU21D;59066;54.782;32.024;2023-12-29T02:12:12;1.28;100.26
43772;HTU21D;59066;54.782;32.024;2023-12-29T02:14:39;1.31;100.38
43772;HTU21D;59066;54.782;32.024;2023-12-29T02:17:15;1.32;100.45
43772;HTU21D;59066;54.782;32.024;2023-12-29T02:19:46;1.38;100.64
43772;HTU21D;59066;54.782;32.024;2023-12-29T02:22:14;1.45;100.61
43772;HTU21D;59066;54.782;32.024;2023-12-29T02:25:00;1.50;100.71
43772;HTU21D;59066;54.782;32.024;2023-12-29T02:27:45;1.47;100.74
43772;HTU21D;59066;54.782;32.024;2023-12-29T02:30:27;1.58;100.59
43772;HTU21D;59066;54.782;32.024;2023-12-29T02:33:01;1.60;100.68
43772;HTU21D;59066;54.782;32.024;2023-12-29T02:35:39;1.64;100.52
43772;HTU21D;59066;54.782;32.024;2023-12-29T02:38:07;1.61;100.52
43772;HTU21D;59066;54.782;32.024;2023-12-29T02:40:35;1.66;100.40
43772;HTU21D;59066;54.782;32.024;2023-12-29T02:43:03;1.60;100.16
43772;HTU21D;59066;54.782;32.024;2023-12-29T02:45:31;1.61;100.35
43772;HTU21D;59066;54.782;32.024;2023-12-29T02:47:58;1.67;100.20
43772;HTU21D;59066;54.782;32.024;2023-12-29T02:50:27;1.65;100.40
43772;HTU21D;59066;54.782;32.024;2023-12-29T02:52:54;1.61;100.54
43772;HTU21D;59066;54.782;32.024;2023-12-29T02:55:22;1.64;100.46
43772;HTU21D;59066;54.782;32.024;2023-12-29T02:57:50;1.67;100.65
43772;HTU21D;59066;54.782;32.024;2023-12-29T03:00:18;1.69;100.49
43772;HTU21D;59066;54.782;32.024;2023-12-29T03:02:46;1.73;100.52
43772;HTU21D;59066;54.782;32.024;2023-12-29T03:05:14;1.70;100.45
43772;HTU21D;59066;54.782;32.024;2023-12-29T03:07:42;1.76;100.37
43772;HTU21D;59066;54.782;32.024;2023-12-29T03:10:10;1.73;100.70
43772;HTU21D;59066;54.782;32.024;2023-12-29T03:12:38;1.73;100.68
43772;HTU21D;59066;54.782;32.024;2023-12-29T03:15:09;1.72;100.69
43772;HTU21D;59066;54.782;32.024;2023-12-29T03:17:36;1.78;100.77
43772;HTU21D;59066;54.782;32.024;2023-12-29T03:20:05;1.80;100.66
43772;HTU21D;59066;54.782;32.024;2023-12-29T03:22:33;1.83;100.98
43772;HTU21D;59066;54.782;32.024;2023-12-29T03:25:01;1.82;101.12
43772;HTU21D;59066;54.782;32.024;2023-12-29T03:27:29;1.81;101.04
43772;HTU21D;59066;54.782;32.024;2023-12-29T03:29:58;1.83;101.15
43772;HTU21D;59066;54.782;32.024;2023-12-29T03:32:25;1.79;101.22
43772;HTU21D;59066;54.782;32.024;2023-12-29T03:34:53;1.79;101.38
43772;HTU21D;59066;54.782;32.024;2023-12-29T03:37:22;1.84;101.51
43772;HTU21D;59066;54.782;32.024;2023-12-29T03:39:49;1.84;101.45
43772;HTU21D;59066;54.782;32.024;2023-12-29T03:42:17;1.87;101.67
43772;HTU21D;59066;54.782;32.024;2023-12-29T03:44:44;1.86;101.71
43772;HTU21D;59066;54.782;32.024;2023-12-29T03:47:12;1.87;101.75
43772;HTU21D;59066;54.782;32.024;2023-12-29T03:49:40;1.85;101.89
43772;HTU21D;59066;54.782;32.024;2023-12-29T03:52:07;1.88;101.98
43772;HTU21D;59066;54.782;32.024;2023-12-29T03:54:35;1.91;102.18
43772;HTU21D;59066;54.782;32.024;2023-12-29T03:57:03;1.95;102.24
43772;HTU21D;59066;54.782;32.024;2023-12-29T03:59:32;2.00;102.17
43772;HTU21D;59066;54.782;32.024;2023-12-29T04:02:00;2.03;102.06
43772;HTU21D;59066;54.782;32.024;2023-12-29T04:04:28;2.02;102.18
43772;HTU21D;59066;54.782;32.024;2023-12-29T04:06:56;2.05;102.28
43772;HTU21D;59066;54.782;32.024;2023-12-29T04:09:23;2.00;102.35
43772;HTU21D;59066;54.782;32.024;2023-12-29T04:11:51;2.01;102.58
43772;HTU21D;59066;54.782;32.024;2023-12-29T04:14:19;2.01;102.74
43772;HTU21D;59066;54.782;32.024;2023-12-29T04:16:47;2.07;102.94
43772;HTU21D;59066;54.782;32.024;2023-12-29T04:19:15;2.12;102.92
43772;HTU21D;59066;54.782;32.024;2023-12-29T04:21:44;2.16;102.83
43772;HTU21D;59066;54.782;32.024;2023-12-29T04:24:11;2.22;102.97
43772;HTU21D;59066;54.782;32.024;2023-12-29T04:26:39;2.30;102.86
43772;HTU21D;59066;54.782;32.024;2023-12-29T04:29:07;2.30;102.80
43772;HTU21D;59066;54.782;32.024;2023-12-29T04:31:35;2.37;102.89
43772;HTU21D;59066;54.782;32.024;2023-12-29T04:34:02;2.39;102.74
43772;HTU21D;59066;54.782;32.024;2023-12-29T04:36:31;2.37;102.67
43772;HTU21D;59066;54.782;32.024;2023-12-29T04:38:59;2.36;102.93
43772;HTU21D;59066;54.782;32.024;2023-12-29T04:41:27;2.36;103.05
43772;HTU21D;59066;54.782;32.024;2023-12-29T04:43:54;2.37;102.90
43772;HTU21D;59066;54.782;32.024;2023-12-29T04:46:22;2.31;103.20
43772;HTU21D;59066;54.782;32.024;2023-12-29T04:48:50;2.36;103.11
43772;HTU21D;59066;54.782;32.024;2023-12-29T04:51:18;2.45;103.35
43772;HTU21D;59066;54.782;32.024;2023-12-29T04:53:46;2.53;103.21
43772;HTU21D;59066;54.782;32.024;2023-12-29T04:56:13;2.55;103.22
43772;HTU21D;59066;54.782;32.024;2023-12-29T04:58:41;2.58;103.08
43772;HTU21D;59066;54.782;32.024;2023-12-29T05:01:09;2.56;103.02
43772;HTU21D;59066;54.782;32.024;2023-12-29T05:03:37;2.52;102.96
43772;HTU21D;59066;54.782;32.024;2023-12-29T05:06:04;2.55;103.14
43772;HTU21D;59066;54.782;32.024;2023-12-29T05:08:32;2.56;103.13
43772;HTU21D;59066;54.782;32.024;2023-12-29T05:11:00;2.57;102.90
43772;HTU21D;59066;54.782;32.024;2023-12-29T05:13:28;2.59;103.09
43772;HTU21D;59066;54.782;32.024;2023-12-29T05:15:56;2.58;102.99
43772;HTU21D;59066;54.782;32.024;2023-12-29T05:18:24;2.58;103.21
43772;HTU21D;59066;54.782;32.024;2023-12-29T05:20:54;2.65;103.33
43772;HTU21D;59066;54.782;32.024;2023-12-29T05:23:22;2.62;103.35
43772;HTU21D;59066;54.782;32.024;2023-12-29T05:25:49;2.66;103.33
43772;HTU21D;59066;54.782;32.024;2023-12-29T05:28:17;2.66;103.32
43772;HTU21D;59066;54.782;32.024;2023-12-29T05:30:45;2.71;103.32
43772;HTU21D;59066;54.782;32.024;2023-12-29T05:33:12;2.76;103.68
43772;HTU21D;59066;54.782;32.024;2023-12-29T05:35:40;2.82;103.65
43772;HTU21D;59066;54.782;32.024;2023-12-29T05:38:08;2.78;103.71
43772;HTU21D;59066;54.782;32.024;2023-12-29T05:40:35;2.81;103.50
43772;HTU21D;59066;54.782;32.024;2023-12-29T05:43:03;2.79;103.42
43772;HTU21D;59066;54.782;32.024;2023-12-29T05:45:31;2.82;103.59
43772;HTU21D;59066;54.782;32.024;2023-12-29T05:47:59;2.81;103.66
43772;HTU21D;59066;54.782;32.024;2023-12-29T05:50:27;2.85;103.48
43772;HTU21D;59066;54.782;32.024;2023-12-29T05:52:55;2.81;103.47
43772;HTU21D;59066;54.782;32.024;2023-12-29T05:55:23;2.87;103.40
43772;HTU21D;59066;54.782;32.024;2023-12-29T05:57:51;2.90;103.50
43772;HTU21D;59066;54.782;32.024;2023-12-29T06:00:18;2.96;103.50
43772;HTU21D;59066;54.782;32.024;2023-12-29T06:02:46;2.96;103.69
43772;HTU21D;59066;54.782;32.024;2023-12-29T06:05:15;2.91;103.62
43772;HTU21D;59066;54.782;32.024;2023-12-29T06:07:44;2.99;103.54
43772;HTU21D;59066;54.782;32.024;2023-12-29T06:10:16;2.98;103.66
43772;HTU21D;59066;54.782;32.024;2023-12-29T06:12:44;3.00;103.61
43772;HTU21D;59066;54.782;32.024;2023-12-29T06:15:13;2.98;103.61
43772;HTU21D;59066;54.782;32.024;2023-12-29T06:17:44;3.03;103.55
43772;HTU21D;59066;54.782;32.024;2023-12-29T06:20:12;3.05;103.47
43772;HTU21D;59066;54.782;32.024;2023-12-29T06:22:40;3.05;103.45
43772;HTU21D;59066;54.782;32.024;2023-12-29T06:25:12;3.10;103.45
43772;HTU21D;59066;54.782;32.024;2023-12-29T06:27:40;3.06;103.42
43772;HTU21D;59066;54.782;32.024;2023-12-29T06:30:09;3.05;103.44
43772;HTU21D;59066;54.782;32.024;2023-12-29T06:32:38;3.06;103.50
43772;HTU21D;59066;54.782;32.024;2023-12-29T06:35:08;3.06;103.60
43772;HTU21D;59066;54.782;32.024;2023-12-29T06:37:38;3.14;103.49
43772;HTU21D;59066;54.782;32.024;2023-12-29T06:40:07;3.14;103.38
43772;HTU21D;59066;54.782;32.024;2023-12-29T06:42:35;3.14;103.37
43772;HTU21D;59066;54.782;32.024;2023-12-29T06:45:04;3.15;103.33
43772;HTU21D;59066;54.782;32.024;2023-12-29T06:47:36;3.16;103.34
43772;HTU21D;59066;54.782;32.024;2023-12-29T06:50:05;3.23;103.40
43772;HTU21D;59066;54.782;32.024;2023-12-29T06:52:34;3.17;103.26
43772;HTU21D;59066;54.782;32.024;2023-12-29T06:55:02;3.24;103.29
43772;HTU21D;59066;54.782;32.024;2023-12-29T06:57:30;3.31;103.27
43772;HTU21D;59066;54.782;32.024;2023-12-29T06:59:58;3.29;103.19
43772;HTU21D;59066;54.782;32.024;2023-12-29T07:02:25;3.29;103.42
43772;HTU21D;59066;54.782;32.024;2023-12-29T07:04:53;3.34;103.38
43772;HTU21D;59066;54.782;32.024;2023-12-29T07:07:21;3.39;103.28
43772;HTU21D;59066;54.782;32.024;2023-12-29T07:09:49;3.40;103.33
43772;HTU21D;59066;54.782;32.024;2023-12-29T07:12:17;3.42;103.45
43772;HTU21D;59066;54.782;32.024;2023-12-29T07:14:45;3.43;103.50
43772;HTU21D;59066;54.782;32.024;2023-12-29T07:17:13;3.45;103.42
43772;HTU21D;59066;54.782;32.024;2023-12-29T07:19:41;3.49;103.43
43772;HTU21D;59066;54.782;32.024;2023-12-29T07:22:09;3.46;103.32
43772;HTU21D;59066;54.782;32.024;2023-12-29T07:24:38;3.48;103.13
43772;HTU21D;59066;54.782;32.024;2023-12-29T07:27:06;3.48;103.04
43772;HTU21D;59066;54.782;32.024;2023-12-29T07:29:34;3.49;103.04
43772;HTU21D;59066;54.782;32.024;2023-12-29T07:32:02;3.55;102.99
43772;HTU21D;59066;54.782;32.024;2023-12-29T07:34:30;3.58;102.99
43772;HTU21D;59066;54.782;32.024;2023-12-29T07:36:58;3.60;102.80
43772;HTU21D;59066;54.782;32.024;2023-12-29T07:39:26;3.64;103.09
43772;HTU21D;59066;54.782;32.024;2023-12-29T07:41:54;3.65;103.18
43772;HTU21D;59066;54.782;32.024;2023-12-29T07:44:25;3.64;103.14
43772;HTU21D;59066;54.782;32.024;2023-12-29T07:46:53;3.70;103.02
43772;HTU21D;59066;54.782;32.024;2023-12-29T07:49:21;3.70;103.05
43772;HTU21D;59066;54.782;32.024;2023-12-29T07:51:49;3.73;102.80
43772;HTU21D;59066;54.782;32.024;2023-12-29T07:54:17;3.71;102.88
43772;HTU21D;59066;54.782;32.024;2023-12-29T07:56:45;3.73;102.82
43772;HTU21D;59066;54.782;32.024;2023-12-29T07:59:12;3.74;102.60
43772;HTU21D;59066;54.782;32.024;2023-12-29T08:01:40;3.75;102.80
43772;HTU21D;59066;54.782;32.024;2023-12-29T08:04:08;3.74;102.55
43772;HTU21D;59066;54.782;32.024;2023-12-29T08:06:38;3.75;102.57
43772;HTU21D;59066;54.782;32.024;2023-12-29T08:09:06;3.78;102.32
43772;HTU21D;59066;54.782;32.024;2023-12-29T08:11:34;3.73;101.89
43772;HTU21D;59066;54.782;32.024;2023-12-29T08:14:02;3.74;101.87
43772;HTU21D;59066;54.782;32.024;2023-12-29T08:16:29;3.77;101.96
43772;HTU21D;59066;54.782;32.024;2023-12-29T08:18:57;3.78;102.06
43772;HTU21D;59066;54.782;32.024;2023-12-29T08:21:25;3.80;102.07
43772;HTU21D;59066;54.782;32.024;2023-12-29T08:23:53;3.79;102.02
43772;HTU21D;59066;54.782;32.024;2023-12-29T08:26:21;3.85;102.15
43772;HTU21D;59066;54.782;32.024;2023-12-29T08:28:48;3.86;102.05
43772;HTU21D;59066;54.782;32.024;2023-12-29T08:31:18;3.93;101.82
43772;HTU21D;59066;54.782;32.024;2023-12-29T08:33:46;3.93;101.97
43772;HTU21D;59066;54.782;32.024;2023-12-29T08:36:20;3.98;101.93
43772;HTU21D;59066;54.782;32.024;2023-12-29T08:38:50;4.00;101.71
43772;HTU21D;59066;54.782;32.024;2023-12-29T08:41:20;4.01;101.73
43772;HTU21D;59066;54.782;32.024;2023-12-29T08:43:47;3.99;101.74
43772;HTU21D;59066;54.782;32.024;2023-12-29T08:46:15;4.01;101.58
43772;HTU21D;59066;54.782;32.024;2023-12-29T08:48:43;3.97;101.51
43772;HTU21D;59066;54.782;32.024;2023-12-29T08:51:11;4.02;101.77
43772;HTU21D;59066;54.782;32.024;2023-12-29T08:53:38;4.04;101.49
43772;HTU21D;59066;54.782;32.024;2023-12-29T08:56:06;4.08;101.41
43772;HTU21D;59066;54.782;32.024;2023-12-29T08:58:36;4.06;101.38
43772;HTU21D;59066;54.782;32.024;2023-12-29T09:01:05;4.05;101.09
43772;HTU21D;59066;54.782;32.024;2023-12-29T09:03:33;4.00;101.01
43772;HTU21D;59066;54.782;32.024;2023-12-29T09:06:01;4.01;100.73
43772;HTU21D;59066;54.782;32.024;2023-12-29T09:08:30;4.03;100.97
43772;HTU21D;59066;54.782;32.024;2023-12-29T09:10:58;4.04;100.99
43772;HTU21D;59066;54.782;32.024;2023-12-29T09:13:26;4.05;101.07
43772;HTU21D;59066;54.782;32.024;2023-12-29T09:15:55;4.04;101.09
43772;HTU21D;59066;54.782;32.024;2023-12-29T09:18:23;4.04;101.15
43772;HTU21D;59066;54.782;32.024;2023-12-29T09:20:51;4.01;101.03
43772;HTU21D;59066;54.782;32.024;2023-12-29T09:23:19;4.04;100.82
43772;HTU21D;59066;54.782;32.024;2023-12-29T09:25:47;4.07;101.00
43772;HTU21D;59066;54.782;32.024;2023-12-29T09:28:15;4.10;101.00
43772;HTU21D;59066;54.782;32.024;2023-12-29T09:30:43;4.15;101.11
43772;HTU21D;59066;54.782;32.024;2023-12-29T09:33:11;4.14;101.26
43772;HTU21D;59066;54.782;32.024;2023-12-29T09:35:39;4.15;100.99
43772;HTU21D;59066;54.782;32.024;2023-12-29T09:38:07;4.17;100.90
43772;HTU21D;59066;54.782;32.024;2023-12-29T09:40:36;4.19;100.91
43772;HTU21D;59066;54.782;32.024;2023-12-29T09:43:05;4.23;101.44
43772;HTU21D;59066;54.782;32.024;2023-12-29T09:45:33;4.19;100.99
43772;HTU21D;59066;54.782;32.024;2023-12-29T09:48:07;4.08;100.57
43772;HTU21D;59066;54.782;32.024;2023-12-29T09:50:36;4.17;100.75
43772;HTU21D;59066;54.782;32.024;2023-12-29T09:53:04;4.20;100.78
43772;HTU21D;59066;54.782;32.024;2023-12-29T09:55:32;4.20;100.96
43772;HTU21D;59066;54.782;32.024;2023-12-29T09:58:01;4.19;100.92
43772;HTU21D;59066;54.782;32.024;2023-12-29T10:00:30;4.21;101.06
43772;HTU21D;59066;54.782;32.024;2023-12-29T10:03:00;4.21;100.62
43772;HTU21D;59066;54.782;32.024;2023-12-29T10:05:28;4.15;100.47
43772;HTU21D;59066;54.782;32.024;2023-12-29T10:07:57;4.15;100.26
43772;HTU21D;59066;54.782;32.024;2023-12-29T10:10:30;4.18;100.54
43772;HTU21D;59066;54.782;32.024;2023-12-29T10:12:59;4.15;100.70
43772;HTU21D;59066;54.782;32.024;2023-12-29T10:15:32;4.16;100.76
43772;HTU21D;59066;54.782;32.024;2023-12-29T10:18:22;4.15;100.80
43772;HTU21D;59066;54.782;32.024;2023-12-29T10:24:04;4.14;101.05
43772;HTU21D;59066;54.782;32.024;2023-12-29T10:26:35;4.14;101.45
43772;HTU21D;59066;54.782;32.024;2023-12-29T10:29:03;4.09;101.50
43772;HTU21D;59066;54.782;32.024;2023-12-29T10:31:31;4.16;101.96
43772;HTU21D;59066;54.782;32.024;2023-12-29T10:34:24;4.20;101.95
43772;HTU21D;59066;54.782;32.024;2023-12-29T10:36:59;4.27;102.04
43772;HTU21D;59066;54.782;32.024;2023-12-29T10:39:30;4.24;101.99
43772;HTU21D;59066;54.782;32.024;2023-12-29T10:42:06;4.24;102.08
43772;HTU21D;59066;54.782;32.024;2023-12-29T10:44:35;4.29;102.47
43772;HTU21D;59066;54.782;32.024;2023-12-29T10:47:12;4.28;102.53
43772;HTU21D;59066;54.782;32.024;2023-12-29T10:49:41;4.29;102.12
43772;HTU21D;59066;54.782;32.024;2023-12-29T10:52:16;4.23;102.35
43772;HTU21D;59066;54.782;32.024;2023-12-29T10:54:44;4.27;102.45
43772;HTU21D;59066;54.782;32.024;2023-12-29T10:57:12;4.20;102.24
43772;HTU21D;59066;54.782;32.024;2023-12-29T10:59:40;4.21;102.76
43772;HTU21D;59066;54.782;32.024;2023-12-29T11:02:11;4.26;102.47
43772;HTU21D;59066;54.782;32.024;2023-12-29T11:04:43;4.24;102.35
43772;HTU21D;59066;54.782;32.024;2023-12-29T11:07:12;4.21;102.51
43772;HTU21D;59066;54.782;32.024;2023-12-29T11:09:40;4.23;102.60
43772;HTU21D;59066;54.782;32.024;2023-12-29T11:12:09;4.23;102.54
43772;HTU21D;59066;54.782;32.024;2023-12-29T11:14:37;4.27;102.54
43772;HTU21D;59066;54.782;32.024;2023-12-29T11:17:08;4.19;102.28
43772;HTU21D;59066;54.782;32.024;2023-12-29T11:19:38;4.19;102.49
43772;HTU21D;59066;54.782;32.024;2023-12-29T11:22:08;4.20;102.56
43772;HTU21D;59066;54.782;32.024;2023-12-29T11:24:36;4.20;102.86
43772;HTU21D;59066;54.782;32.024;2023-12-29T11:27:07;4.19;102.54
43772;HTU21D;59066;54.782;32.024;2023-12-29T11:29:35;4.19;102.86
43772;HTU21D;59066;54.782;32.024;2023-12-29T11:32:06;4.19;102.86
43772;HTU21D;59066;54.782;32.024;2023-12-29T11:34:39;4.18;102.73
43772;HTU21D;59066;54.782;32.024;2023-12-29T11:37:26;4.19;103.07
43772;HTU21D;59066;54.782;32.024;2023-12-29T11:40:23;4.19;102.76
43772;HTU21D;59066;54.782;32.024;2023-12-29T11:42:58;4.26;103.24
43772;HTU21D;59066;54.782;32.024;2023-12-29T11:45:32;4.24;102.95
43772;HTU21D;59066;54.782;32.024;2023-12-29T11:48:03;4.28;102.88
43772;HTU21D;59066;54.782;32.024;2023-12-29T11:50:32;4.29;102.96
43772;HTU21D;59066;54.782;32.024;2023-12-29T11:53:00;4.26;102.52
43772;HTU21D;59066;54.782;32.024;2023-12-29T11:55:30;4.22;102.63
43772;HTU21D;59066;54.782;32.024;2023-12-29T11:57:58;4.16;102.56
43772;HTU21D;59066;54.782;32.024;2023-12-29T12:00:46;4.22;102.92
43772;HTU21D;59066;54.782;32.024;2023-12-29T12:03:33;4.16;102.56
43772;HTU21D;59066;54.782;32.024;2023-12-29T12:06:01;4.23;102.76
43772;HTU21D;59066;54.782;32.024;2023-12-29T12:08:35;4.18;102.60
43772;HTU21D;59066;54.782;32.024;2023-12-29T12:13:57;4.12;102.55
43772;HTU21D;59066;54.782;32.024;2023-12-29T12:16:47;4.13;102.73
43772;HTU21D;59066;54.782;32.024;2023-12-29T12:19:16;4.13;102.88
43772;HTU21D;59066;54.782;32.024;2023-12-29T12:21:46;4.08;102.81
43772;HTU21D;59066;54.782;32.024;2023-12-29T12:24:20;4.07;102.89
43772;HTU21D;59066;54.782;32.024;2023-12-29T12:26:48;4.08;102.92
43772;HTU21D;59066;54.782;32.024;2023-12-29T12:29:17;4.09;102.98
43772;HTU21D;59066;54.782;32.024;2023-12-29T12:31:54;4.06;102.86
43772;HTU21D;59066;54.782;32.024;2023-12-29T12:34:22;4.08;103.08
43772;HTU21D;59066;54.782;32.024;2023-12-29T12:36:51;4.02;102.89
43772;HTU21D;59066;54.782;32.024;2023-12-29T12:39:19;4.02;102.85
43772;HTU21D;59066;54.782;32.024;2023-12-29T12:41:47;4.00;103.09
43772;HTU21D;59066;54.782;32.024;2023-12-29T12:44:15;3.93;103.08
43772;HTU21D;59066;54.782;32.024;2023-12-29T12:49:15;3.97;103.31
43772;HTU21D;59066;54.782;32.024;2023-12-29T12:51:44;3.93;103.34
43772;HTU21D;59066;54.782;32.024;2023-12-29T12:54:12;3.94;103.28
43772;HTU21D;59066;54.782;32.024;2023-12-29T12:56:42;3.93;103.35
43772;HTU21D;59066;54.782;32.024;2023-12-29T12:59:11;4.00;103.38
43772;HTU21D;59066;54.782;32.024;2023-12-29T13:01:39;4.01;103.34
43772;HTU21D;59066;54.782;32.024;2023-12-29T13:04:08;3.99;102.97
43772;HTU21D;59066;54.782;32.024;2023-12-29T13:06:41;3.99;102.93
43772;HTU21D;59066;54.782;32.024;2023-12-29T13:09:09;3.94;102.86
43772;HTU21D;59066;54.782;32.024;2023-12-29T13:11:40;3.98;102.85
43772;HTU21D;59066;54.782;32.024;2023-12-29T13:14:08;4.01;103.04
43772;HTU21D;59066;54.782;32.024;2023-12-29T13:16:37;4.06;103.09
43772;HTU21D;59066;54.782;32.024;2023-12-29T13:19:22;4.02;102.64
43772;HTU21D;59066;54.782;32.024;2023-12-29T13:21:54;4.00;102.90
43772;HTU21D;59066;54.782;32.024;2023-12-29T13:24:23;3.95;102.95
43772;HTU21D;59066;54.782;32.024;2023-12-29T13:27:02;4.00;102.80
43772;HTU21D;59066;54.782;32.024;2023-12-29T13:29:31;4.03;102.94
43772;HTU21D;59066;54.782;32.024;2023-12-29T13:35:05;4.02;102.76
43772;HTU21D;59066;54.782;32.024;2023-12-29T13:37:49;3.97;102.70
43772;HTU21D;59066;54.782;32.024;2023-12-29T13:40:25;4.00;103.34
43772;HTU21D;59066;54.782;32.024;2023-12-29T13:43:02;3.92;103.04
43772;HTU21D;59066;54.782;32.024;2023-12-29T13:45:31;3.95;103.34
43772;HTU21D;59066;54.782;32.024;2023-12-29T13:48:00;3.94;103.11
43772;HTU21D;59066;54.782;32.024;2023-12-29T13:50:29;4.01;103.39
43772;HTU21D;59066;54.782;32.024;2023-12-29T13:52:56;4.03;103.44
43772;HTU21D;59066;54.782;32.024;2023-12-29T13:55:24;4.07;103.24
43772;HTU21D;59066;54.782;32.024;2023-12-29T13:57:52;4.04;103.12
43772;HTU21D;59066;54.782;32.024;2023-12-29T14:00:25;4.09;103.30
43772;HTU21D;59066;54.782;32.024;2023-12-29T14:05:28;4.07;103.08
43772;HTU21D;59066;54.782;32.024;2023-12-29T14:10:35;4.12;103.12
43772;HTU21D;59066;54.782;32.024;2023-12-29T14:13:12;4.09;103.06
43772;HTU21D;59066;54.782;32.024;2023-12-29T14:15:43;4.04;103.26
43772;HTU21D;59066;54.782;32.024;2023-12-29T14:21:01;4.02;103.44
43772;HTU21D;59066;54.782;32.024;2023-12-29T14:23:29;4.02;103.28
43772;HTU21D;59066;54.782;32.024;2023-12-29T14:26:03;4.00;103.64
43772;HTU21D;59066;54.782;32.024;2023-12-29T14:28:31;4.06;103.71
43772;HTU21D;59066;54.782;32.024;2023-12-29T14:31:02;4.09;103.41
43772;HTU21D;59066;54.782;32.024;2023-12-29T14:33:30;4.05;103.49
43772;HTU21D;59066;54.782;32.024;2023-12-29T14:35:58;4.00;103.54
43772;HTU21D;59066;54.782;32.024;2023-12-29T14:38:26;3.99;103.59
43772;HTU21D;59066;54.782;32.024;2023-12-29T14:40:54;3.99;103.79
43772;HTU21D;59066;54.782;32.024;2023-12-29T14:43:21;4.00;103.57
43772;HTU21D;59066;54.782;32.024;2023-12-29T14:45:49;3.95;103.63
43772;HTU21D;59066;54.782;32.024;2023-12-29T14:48:18;3.99;104.06
43772;HTU21D;59066;54.782;32.024;2023-12-29T14:50:46;4.04;103.86
43772;HTU21D;59066;54.782;32.024;2023-12-29T14:53:14;4.07;103.68
43772;HTU21D;59066;54.782;32.024;2023-12-29T14:55:42;4.10;103.66
43772;HTU21D;59066;54.782;32.024;2023-12-29T14:58:09;4.09;103.55
43772;HTU21D;59066;54.782;32.024;2023-12-29T15:00:37;4.06;103.60
43772;HTU21D;59066;54.782;32.024;2023-12-29T15:03:05;4.06;103.64
43772;HTU21D;59066;54.782;32.024;2023-12-29T15:05:32;4.09;103.50
43772;HTU21D;59066;54.782;32.024;2023-12-29T15:08:00;4.12;103.52
43772;HTU21D;59066;54.782;32.024;2023-12-29T15:10:28;4.09;103.36
43772;HTU21D;59066;54.782;32.024;2023-12-29T15:12:56;4.04;103.42
43772;HTU21D;59066;54.782;32.024;2023-12-29T15:15:24;4.08;103.63
43772;HTU21D;59066;54.782;32.024;2023-12-29T15:17:52;4.06;103.57
43772;HTU21D;59066;54.782;32.024;2023-12-29T15:20:20;4.09;103.76
43772;HTU21D;59066;54.782;32.024;2023-12-29T15:22:47;4.14;103.59
43772;HTU21D;59066;54.782;32.024;2023-12-29T15:25:15;4.16;103.53
43772;HTU21D;59066;54.782;32.024;2023-12-29T15:27:45;4.20;103.51
43772;HTU21D;59066;54.782;32.024;2023-12-29T15:30:13;4.13;103.37
43772;HTU21D;59066;54.782;32.024;2023-12-29T15:32:40;4.18;103.57
43772;HTU21D;59066;54.782;32.024;2023-12-29T15:35:10;4.16;103.42